Terminal Aerodrome Forecast
Issued by NWS

Home | Current Version | Previous Version | Text Only | Print | Product List | Glossary On
Versions: 1 2 3 4 5 6 7 8 9 10 11 12 13 14 15 16 17 18 19 20 21 22 23 24 25 26
000
FTUS42 KMHX 241559 AAB
TAFOAJ
TAF AMD
KOAJ 241559Z 2416/2512 23009KT P6SM BKN015
      TEMPO 2416/2417 BKN008
     FM241700 22009KT P6SM SCT035
     FM250000 18007KT P6SM SCT200
     FM250300 19007KT P6SM SCT007
      AMD LTD TO CLD VIS AND WIND=

USA.gov is the U.S. government's official web portal to all federal, state and local government web resources and services.